sensor_id;sensor_type;location;lat;lon;timestamp;P1;durP1;ratioP1;P2;durP2;ratioP2
9234;SDS011;4652;42.716;23.218;2023-12-20T02:08:01;23.30;;;16.00;;
9234;SDS011;4652;42.716;23.218;2023-12-20T02:14:43;29.23;;;16.90;;
9234;SDS011;4652;42.716;23.218;2023-12-20T02:21:31;28.10;;;16.30;;
9234;SDS011;4652;42.716;23.218;2023-12-20T02:28:15;23.23;;;14.77;;
9234;SDS011;4652;42.716;23.218;2023-12-20T02:34:57;23.93;;;15.07;;
9234;SDS011;4652;42.716;23.218;2023-12-20T02:41:40;26.80;;;17.27;;
9234;SDS011;4652;42.716;23.218;2023-12-20T02:48:22;26.07;;;15.53;;
9234;SDS011;4652;42.716;23.218;2023-12-20T02:55:05;22.50;;;15.50;;
9234;SDS011;4652;42.716;23.218;2023-12-20T03:01:49;25.23;;;15.80;;
9234;SDS011;4652;42.716;23.218;2023-12-20T03:08:31;28.03;;;15.57;;
9234;SDS011;4652;42.716;23.218;2023-12-20T03:15:13;24.40;;;15.63;;
9234;SDS011;4652;42.716;23.218;2023-12-20T03:21:57;23.63;;;14.77;;
9234;SDS011;4652;42.716;23.218;2023-12-20T03:28:41;25.33;;;14.53;;
9234;SDS011;4652;42.716;23.218;2023-12-20T03:35:23;24.43;;;15.37;;
9234;SDS011;4652;42.716;23.218;2023-12-20T03:42:07;20.97;;;14.87;;
9234;SDS011;4652;42.716;23.218;2023-12-20T03:48:49;23.73;;;13.97;;
9234;SDS011;4652;42.716;23.218;2023-12-20T03:55:31;26.23;;;14.57;;
9234;SDS011;4652;42.716;23.218;2023-12-20T04:02:14;25.50;;;14.40;;
9234;SDS011;4652;42.716;23.218;2023-12-20T04:08:58;22.73;;;14.03;;
9234;SDS011;4652;42.716;23.218;2023-12-20T04:15:40;20.17;;;13.17;;
9234;SDS011;4652;42.716;23.218;2023-12-20T04:22:24;24.83;;;14.60;;
9234;SDS011;4652;42.716;23.218;2023-12-20T04:29:06;26.30;;;14.80;;
9234;SDS011;4652;42.716;23.218;2023-12-20T04:35:48;24.23;;;14.20;;
9234;SDS011;4652;42.716;23.218;2023-12-20T04:42:33;25.00;;;15.07;;
9234;SDS011;4652;42.716;23.218;2023-12-20T04:49:15;23.87;;;14.13;;
9234;SDS011;4652;42.716;23.218;2023-12-20T04:55:57;25.80;;;15.60;;
9234;SDS011;4652;42.716;23.218;2023-12-20T05:02:41;59.37;;;20.93;;
9234;SDS011;4652;42.716;23.218;2023-12-20T05:09:23;78.53;;;21.67;;
9234;SDS011;4652;42.716;23.218;2023-12-20T05:16:05;99.23;;;23.27;;
9234;SDS011;4652;42.716;23.218;2023-12-20T05:22:50;86.70;;;23.63;;
9234;SDS011;4652;42.716;23.218;2023-12-20T05:29:33;107.53;;;23.70;;
9234;SDS011;4652;42.716;23.218;2023-12-20T05:36:15;114.97;;;26.03;;
9234;SDS011;4652;42.716;23.218;2023-12-20T05:42:58;65.13;;;29.07;;
9234;SDS011;4652;42.716;23.218;2023-12-20T05:49:41;76.67;;;27.70;;
9234;SDS011;4652;42.716;23.218;2023-12-20T05:56:23;126.73;;;31.93;;
9234;SDS011;4652;42.716;23.218;2023-12-20T06:03:06;89.43;;;28.23;;
9234;SDS011;4652;42.716;23.218;2023-12-20T06:09:48;70.63;;;30.37;;
9234;SDS011;4652;42.716;23.218;2023-12-20T06:16:31;76.33;;;25.13;;
9234;SDS011;4652;42.716;23.218;2023-12-20T06:23:14;91.47;;;25.33;;
9234;SDS011;4652;42.716;23.218;2023-12-20T06:29:56;99.07;;;25.20;;
9234;SDS011;4652;42.716;23.218;2023-12-20T06:36:39;99.07;;;23.37;;
9234;SDS011;4652;42.716;23.218;2023-12-20T06:43:23;55.90;;;19.10;;
9234;SDS011;4652;42.716;23.218;2023-12-20T06:50:05;39.20;;;17.03;;
9234;SDS011;4652;42.716;23.218;2023-12-20T06:56:48;56.53;;;17.33;;
9234;SDS011;4652;42.716;23.218;2023-12-20T07:03:32;45.83;;;20.13;;
9234;SDS011;4652;42.716;23.218;2023-12-20T07:10:14;53.10;;;19.60;;
9234;SDS011;4652;42.716;23.218;2023-12-20T07:16:56;56.03;;;20.23;;
9234;SDS011;4652;42.716;23.218;2023-12-20T07:23:39;79.40;;;31.27;;
9234;SDS011;4652;42.716;23.218;2023-12-20T07:30:21;114.47;;;27.43;;
9234;SDS011;4652;42.716;23.218;2023-12-20T07:37:04;33.60;;;19.43;;
9234;SDS011;4652;42.716;23.218;2023-12-20T07:43:47;76.90;;;37.93;;
9234;SDS011;4652;42.716;23.218;2023-12-20T07:50:29;162.37;;;30.67;;
9234;SDS011;4652;42.716;23.218;2023-12-20T07:57:11;103.23;;;23.80;;
9234;SDS011;4652;42.716;23.218;2023-12-20T08:07:59;69.17;;;24.43;;
9234;SDS011;4652;42.716;23.218;2023-12-20T08:14:41;110.57;;;25.57;;
9234;SDS011;4652;42.716;23.218;2023-12-20T08:21:23;139.90;;;60.50;;
9234;SDS011;4652;42.716;23.218;2023-12-20T08:28:07;74.70;;;32.40;;
9234;SDS011;4652;42.716;23.218;2023-12-20T08:34:49;60.23;;;25.93;;
9234;SDS011;4652;42.716;23.218;2023-12-20T08:41:31;89.23;;;26.00;;
9234;SDS011;4652;42.716;23.218;2023-12-20T08:48:14;60.57;;;28.87;;
9234;SDS011;4652;42.716;23.218;2023-12-20T08:54:56;75.73;;;30.10;;
9234;SDS011;4652;42.716;23.218;2023-12-20T09:01:38;66.97;;;27.30;;
9234;SDS011;4652;42.716;23.218;2023-12-20T09:08:22;51.63;;;25.83;;
9234;SDS011;4652;42.716;23.218;2023-12-20T09:15:04;56.50;;;27.20;;
9234;SDS011;4652;42.716;23.218;2023-12-20T09:21:47;49.17;;;27.40;;
9234;SDS011;4652;42.716;23.218;2023-12-20T09:28:31;46.77;;;25.63;;
9234;SDS011;4652;42.716;23.218;2023-12-20T09:35:17;77.73;;;36.17;;
9234;SDS011;4652;42.716;23.218;2023-12-20T09:42:02;75.43;;;38.10;;
9234;SDS011;4652;42.716;23.218;2023-12-20T15:05:08;103.20;;;42.97;;
9234;SDS011;4652;42.716;23.218;2023-12-20T15:11:50;126.90;;;51.17;;
9234;SDS011;4652;42.716;23.218;2023-12-20T15:18:32;167.20;;;56.53;;
9234;SDS011;4652;42.716;23.218;2023-12-20T15:25:16;118.53;;;57.40;;
9234;SDS011;4652;42.716;23.218;2023-12-20T15:32:02;210.83;;;97.30;;
9234;SDS011;4652;42.716;23.218;2023-12-20T15:38:45;180.57;;;79.30;;
9234;SDS011;4652;42.716;23.218;2023-12-20T15:45:29;119.30;;;57.77;;
9234;SDS011;4652;42.716;23.218;2023-12-20T15:52:11;136.70;;;67.80;;
9234;SDS011;4652;42.716;23.218;2023-12-20T15:58:53;131.60;;;68.67;;
9234;SDS011;4652;42.716;23.218;2023-12-20T16:05:39;187.80;;;82.70;;
9234;SDS011;4652;42.716;23.218;2023-12-20T16:12:21;244.87;;;116.33;;
9234;SDS011;4652;42.716;23.218;2023-12-20T16:19:04;319.27;;;154.13;;
9234;SDS011;4652;42.716;23.218;2023-12-20T16:25:47;268.53;;;136.77;;
9234;SDS011;4652;42.716;23.218;2023-12-20T16:32:29;216.93;;;111.67;;
9234;SDS011;4652;42.716;23.218;2023-12-20T16:39:11;203.37;;;103.20;;
9234;SDS011;4652;42.716;23.218;2023-12-20T16:45:55;181.80;;;91.33;;
9234;SDS011;4652;42.716;23.218;2023-12-20T16:52:37;188.93;;;98.97;;
9234;SDS011;4652;42.716;23.218;2023-12-20T16:59:19;156.80;;;79.47;;
9234;SDS011;4652;42.716;23.218;2023-12-20T17:06:03;147.00;;;76.33;;
9234;SDS011;4652;42.716;23.218;2023-12-20T17:12:45;143.53;;;74.00;;
9234;SDS011;4652;42.716;23.218;2023-12-20T17:19:27;140.90;;;70.00;;
9234;SDS011;4652;42.716;23.218;2023-12-20T17:26:12;132.10;;;69.80;;
9234;SDS011;4652;42.716;23.218;2023-12-20T17:32:54;143.37;;;73.57;;
9234;SDS011;4652;42.716;23.218;2023-12-20T17:39:37;130.47;;;72.20;;
9234;SDS011;4652;42.716;23.218;2023-12-20T17:46:20;289.30;;;152.10;;
9234;SDS011;4652;42.716;23.218;2023-12-20T17:53:02;447.77;;;146.53;;
9234;SDS011;4652;42.716;23.218;2023-12-20T17:59:44;347.57;;;125.30;;
9234;SDS011;4652;42.716;23.218;2023-12-20T18:06:28;463.03;;;126.10;;
9234;SDS011;4652;42.716;23.218;2023-12-20T18:13:10;275.10;;;84.87;;
9234;SDS011;4652;42.716;23.218;2023-12-20T18:19:52;426.47;;;83.47;;
9234;SDS011;4652;42.716;23.218;2023-12-20T18:26:36;353.10;;;73.57;;
9234;SDS011;4652;42.716;23.218;2023-12-20T18:33:18;191.50;;;73.40;;
9234;SDS011;4652;42.716;23.218;2023-12-20T18:40:01;300.40;;;105.70;;
9234;SDS011;4652;42.716;23.218;2023-12-20T18:46:45;372.77;;;126.60;;
9234;SDS011;4652;42.716;23.218;2023-12-20T18:53:27;394.17;;;126.23;;
9234;SDS011;4652;42.716;23.218;2023-12-20T19:00:09;413.43;;;153.60;;
9234;SDS011;4652;42.716;23.218;2023-12-20T19:06:54;350.67;;;160.70;;
9234;SDS011;4652;42.716;23.218;2023-12-20T19:13:39;323.67;;;155.40;;
9234;SDS011;4652;42.716;23.218;2023-12-20T19:20:21;310.43;;;154.67;;
9234;SDS011;4652;42.716;23.218;2023-12-20T19:27:04;345.20;;;166.33;;
9234;SDS011;4652;42.716;23.218;2023-12-20T19:33:46;1259.33;;;253.93;;
9234;SDS011;4652;42.716;23.218;2023-12-20T19:40:32;742.67;;;211.43;;
9234;SDS011;4652;42.716;23.218;2023-12-20T19:47:15;865.10;;;222.47;;
9234;SDS011;4652;42.716;23.218;2023-12-20T19:53:57;656.87;;;176.97;;
9234;SDS011;4652;42.716;23.218;2023-12-20T20:45:08;459.37;;;186.93;;
9234;SDS011;4652;42.716;23.218;2023-12-20T20:51:50;500.03;;;210.27;;
9234;SDS011;4652;42.716;23.218;2023-12-20T20:58:32;471.63;;;207.50;;
9234;SDS011;4652;42.716;23.218;2023-12-20T21:05:17;716.63;;;179.13;;
9234;SDS011;4652;42.716;23.218;2023-12-20T21:11:59;727.77;;;210.27;;
9234;SDS011;4652;42.716;23.218;2023-12-20T21:18:41;422.50;;;128.40;;
9234;SDS011;4652;42.716;23.218;2023-12-20T21:25:26;415.80;;;111.10;;
9234;SDS011;4652;42.716;23.218;2023-12-20T21:32:08;537.73;;;131.10;;
9234;SDS011;4652;42.716;23.218;2023-12-20T21:38:50;422.73;;;116.43;;
9234;SDS011;4652;42.716;23.218;2023-12-20T21:45:33;550.53;;;123.57;;
9234;SDS011;4652;42.716;23.218;2023-12-20T21:52:17;437.27;;;117.43;;
9234;SDS011;4652;42.716;23.218;2023-12-20T21:58:59;523.57;;;121.40;;
9234;SDS011;4652;42.716;23.218;2023-12-20T22:05:42;236.97;;;105.50;;
9234;SDS011;4652;42.716;23.218;2023-12-20T22:12:24;248.30;;;115.80;;
9234;SDS011;4652;42.716;23.218;2023-12-20T22:19:07;222.73;;;104.47;;
9234;SDS011;4652;42.716;23.218;2023-12-20T22:25:51;241.30;;;118.77;;
9234;SDS011;4652;42.716;23.218;2023-12-20T22:32:33;301.83;;;136.37;;
9234;SDS011;4652;42.716;23.218;2023-12-20T22:39:15;286.67;;;108.83;;
9234;SDS011;4652;42.716;23.218;2023-12-20T22:45:58;347.60;;;130.93;;
9234;SDS011;4652;42.716;23.218;2023-12-20T22:52:42;235.33;;;84.53;;
9234;SDS011;4652;42.716;23.218;2023-12-20T22:59:25;162.57;;;69.27;;
9234;SDS011;4652;42.716;23.218;2023-12-20T23:06:08;134.57;;;62.97;;
9234;SDS011;4652;42.716;23.218;2023-12-20T23:12:50;65.40;;;33.23;;
9234;SDS011;4652;42.716;23.218;2023-12-20T23:19:33;15.07;;;8.20;;
9234;SDS011;4652;42.716;23.218;2023-12-20T23:26:16;17.00;;;8.53;;
9234;SDS011;4652;42.716;23.218;2023-12-20T23:32:58;14.07;;;7.90;;
9234;SDS011;4652;42.716;23.218;2023-12-20T23:39:40;15.23;;;8.80;;
9234;SDS011;4652;42.716;23.218;2023-12-20T23:46:24;15.57;;;8.40;;
9234;SDS011;4652;42.716;23.218;2023-12-20T23:53:06;18.37;;;9.73;;
9234;SDS011;4652;42.716;23.218;2023-12-20T23:59:48;19.30;;;12.07;;
